Time,TemperatureF,DewpointF,PressureIn,WindDirection,WindDirectionDegrees,WindSpeedMPH,WindSpeedGustMPH,Humidity,HourlyPrecipIn,Conditions,Clouds,dailyrainin,SolarRadiationWatts/m^2,SoftwareType,DateUTC
2013-02-08 00:01:00,24.0,22.0,-100.00,ESE,107,2.0,7.0,91,0.00,,,0.00,0.000000,,2013-02-08 08:01:00,
2013-02-08 00:11:00,24.0,22.0,-100.00,ESE,107,2.0,7.0,91,0.00,,,0.00,0.000000,,2013-02-08 08:11:00,
2013-02-08 00:21:00,24.0,22.0,-100.00,ESE,107,2.0,7.0,91,0.00,,,0.00,0.000000,,2013-02-08 08:21:00,
2013-02-08 00:42:00,22.0,19.0,-100.00,NW,314,5.0,8.0,89,0.00,,,0.00,0.000000,,2013-02-08 08:42:00,
2013-02-08 00:52:00,22.0,19.0,-100.00,NW,314,5.0,8.0,89,0.00,,,0.00,0.000000,,2013-02-08 08:52:00,
2013-02-08 01:02:00,22.0,19.0,-100.00,NW,314,5.0,8.0,89,0.00,,,0.00,0.000000,,2013-02-08 09:02:00,
2013-02-08 01:11:00,22.0,19.0,-100.00,NW,314,5.0,8.0,89,0.00,,,0.00,0.000000,,2013-02-08 09:11:00,
2013-02-08 01:21:00,22.0,19.0,-100.00,NW,314,5.0,8.0,89,0.00,,,0.00,0.000000,,2013-02-08 09:21:00,
2013-02-08 01:42:00,21.0,17.0,-100.00,WNW,298,5.0,6.0,86,0.00,,,0.00,0.000000,,2013-02-08 09:42:00,
2013-02-08 01:52:00,21.0,17.0,-100.00,WNW,298,5.0,6.0,86,0.00,,,0.00,0.000000,,2013-02-08 09:52:00,
2013-02-08 02:01:00,21.0,17.0,-100.00,WNW,298,5.0,6.0,86,0.00,,,0.00,0.000000,,2013-02-08 10:01:00,
2013-02-08 02:11:00,21.0,17.0,-100.00,WNW,298,5.0,6.0,86,0.00,,,0.00,0.000000,,2013-02-08 10:11:00,
2013-02-08 02:21:00,21.0,17.0,-100.00,WNW,298,5.0,6.0,86,0.00,,,0.00,0.000000,,2013-02-08 10:21:00,
2013-02-08 02:42:00,20.0,16.0,-100.00,West,265,6.0,11.0,84,0.00,,,0.00,0.000000,,2013-02-08 10:42:00,
2013-02-08 02:52:00,20.0,16.0,-100.00,West,265,6.0,11.0,84,0.00,,,0.00,0.000000,,2013-02-08 10:52:00,
2013-02-08 03:01:00,20.0,16.0,-100.00,West,265,6.0,11.0,84,0.00,,,0.00,0.000000,,2013-02-08 11:01:00,
2013-02-08 03:11:00,20.0,16.0,-100.00,West,265,6.0,11.0,84,0.00,,,0.00,0.000000,,2013-02-08 11:11:00,
2013-02-08 03:21:00,20.0,16.0,-100.00,West,265,6.0,11.0,84,0.00,,,0.00,0.000000,,2013-02-08 11:21:00,
2013-02-08 03:42:00,19.0,13.0,-100.00,WNW,296,5.0,11.0,77,0.00,,,0.00,0.000000,,2013-02-08 11:42:00,
2013-02-08 03:52:00,19.0,13.0,-100.00,WNW,296,5.0,11.0,77,0.00,,,0.00,0.000000,,2013-02-08 11:52:00,
2013-02-08 04:01:00,19.0,13.0,-100.00,WNW,296,5.0,11.0,77,0.00,,,0.00,0.000000,,2013-02-08 12:01:00,
2013-02-08 04:11:00,19.0,13.0,-100.00,WNW,296,5.0,11.0,77,0.00,,,0.00,0.000000,,2013-02-08 12:11:00,
2013-02-08 04:21:00,19.0,13.0,-100.00,WNW,296,5.0,11.0,77,0.00,,,0.00,0.000000,,2013-02-08 12:21:00,
2013-02-08 04:42:00,19.0,11.0,-100.00,WNW,283,8.0,10.0,70,0.00,,,0.00,0.000000,,2013-02-08 12:42:00,
2013-02-08 04:52:00,19.0,11.0,-100.00,WNW,283,8.0,10.0,70,0.00,,,0.00,0.000000,,2013-02-08 12:52:00,
2013-02-08 05:01:00,19.0,11.0,-100.00,WNW,283,8.0,10.0,70,0.00,,,0.00,0.000000,,2013-02-08 13:01:00,
2013-02-08 05:11:00,19.0,11.0,-100.00,WNW,283,8.0,10.0,70,0.00,,,0.00,0.000000,,2013-02-08 13:11:00,
2013-02-08 05:21:00,19.0,11.0,-100.00,WNW,283,8.0,10.0,70,0.00,,,0.00,0.000000,,2013-02-08 13:21:00,
2013-02-08 05:43:00,20.0,11.0,-100.00,WNW,289,7.0,8.0,66,0.00,,,0.00,0.000000,,2013-02-08 13:43:00,
2013-02-08 05:52:00,20.0,11.0,-100.00,WNW,289,7.0,8.0,66,0.00,,,0.00,0.000000,,2013-02-08 13:52:00,
2013-02-08 06:02:00,20.0,11.0,-100.00,WNW,289,7.0,8.0,66,0.00,,,0.00,0.000000,,2013-02-08 14:02:00,
2013-02-08 06:11:00,20.0,11.0,-100.00,WNW,289,7.0,8.0,66,0.00,,,0.00,0.000000,,2013-02-08 14:11:00,
2013-02-08 06:21:00,20.0,11.0,-100.00,WNW,289,7.0,8.0,66,0.00,,,0.00,0.000000,,2013-02-08 14:21:00,
2013-02-08 06:42:00,21.0,10.0,-100.00,West,279,6.0,9.0,63,0.00,,,0.00,0.000000,,2013-02-08 14:42:00,
2013-02-08 06:52:00,21.0,10.0,-100.00,West,279,6.0,9.0,63,0.00,,,0.00,0.000000,,2013-02-08 14:52:00,
2013-02-08 07:01:00,21.0,10.0,-100.00,West,279,6.0,9.0,63,0.00,,,0.00,0.000000,,2013-02-08 15:01:00,
2013-02-08 07:11:00,21.0,10.0,-100.00,West,279,6.0,9.0,63,0.00,,,0.00,0.000000,,2013-02-08 15:11:00,
2013-02-08 07:21:00,21.0,10.0,-100.00,West,279,6.0,9.0,63,0.00,,,0.00,0.000000,,2013-02-08 15:21:00,
2013-02-08 07:42:00,20.0,11.0,-100.00,WNW,286,9.0,12.0,68,0.00,,,0.00,3.000000,,2013-02-08 15:42:00,
2013-02-08 07:52:00,20.0,11.0,-100.00,WNW,286,9.0,12.0,68,0.00,,,0.00,3.000000,,2013-02-08 15:52:00,
2013-02-08 08:01:00,20.0,11.0,-100.00,WNW,286,9.0,12.0,68,0.00,,,0.00,3.000000,,2013-02-08 16:01:00,
2013-02-08 08:11:00,20.0,11.0,-100.00,WNW,286,9.0,12.0,68,0.00,,,0.00,3.000000,,2013-02-08 16:11:00,
2013-02-08 08:21:00,20.0,11.0,-100.00,WNW,286,9.0,12.0,68,0.00,,,0.00,3.000000,,2013-02-08 16:21:00,
2013-02-08 08:42:00,28.0,14.0,-100.00,SSW,198,1.0,10.0,55,0.00,,,0.00,101.000000,,2013-02-08 16:42:00,
2013-02-08 08:52:00,28.0,14.0,-100.00,SSW,198,1.0,10.0,55,0.00,,,0.00,101.000000,,2013-02-08 16:52:00,
2013-02-08 09:03:00,28.0,14.0,-100.00,SSW,198,1.0,10.0,55,0.00,,,0.00,101.000000,,2013-02-08 17:03:00,
2013-02-08 09:42:00,38.0,15.0,-100.00,WSW,243,1.0,4.0,38,-99.99,,,-99.99,406.000000,,2013-02-08 17:42:00,
2013-02-08 09:52:00,38.0,15.0,-100.00,WSW,243,1.0,4.0,38,-99.99,,,-99.99,406.000000,,2013-02-08 17:52:00,
2013-02-08 10:01:00,38.0,15.0,-100.00,WSW,243,1.0,4.0,38,-99.99,,,-99.99,406.000000,,2013-02-08 18:01:00,
2013-02-08 10:44:00,39.0,15.0,-100.00,SSW,196,2.0,6.0,37,-99.99,,,0.00,617.000000,,2013-02-08 18:44:00,
2013-02-08 10:52:00,39.0,15.0,-100.00,SSW,196,2.0,6.0,37,-99.99,,,0.00,617.000000,,2013-02-08 18:52:00,
2013-02-08 11:01:00,39.0,15.0,-100.00,SSW,196,2.0,6.0,37,-99.99,,,0.00,617.000000,,2013-02-08 19:01:00,
2013-02-08 11:42:00,39.0,17.0,-100.00,SSW,208,3.0,8.0,41,-99.99,,,0.00,414.000000,,2013-02-08 19:42:00,
2013-02-08 11:52:00,39.0,17.0,-100.00,SSW,208,3.0,8.0,41,-99.99,,,0.00,414.000000,,2013-02-08 19:52:00,
2013-02-08 12:01:00,39.0,17.0,-100.00,SSW,208,3.0,8.0,41,-99.99,,,0.00,414.000000,,2013-02-08 20:01:00,
2013-02-08 12:42:00,35.0,15.0,-100.00,WSW,255,4.0,9.0,44,-99.99,,,0.02,679.000000,,2013-02-08 20:42:00,
2013-02-08 12:52:00,35.0,15.0,-100.00,WSW,255,4.0,9.0,44,-99.99,,,0.02,679.000000,,2013-02-08 20:52:00,
2013-02-08 13:01:00,35.0,15.0,-100.00,WSW,255,4.0,9.0,44,-99.99,,,0.02,679.000000,,2013-02-08 21:01:00,
2013-02-08 13:11:00,35.0,15.0,-100.00,WSW,255,4.0,9.0,44,-99.99,,,0.02,679.000000,,2013-02-08 21:11:00,
2013-02-08 13:21:00,35.0,15.0,-100.00,WSW,255,4.0,9.0,44,-99.99,,,0.02,679.000000,,2013-02-08 21:21:00,
2013-02-08 13:42:00,36.0,24.0,-100.00,WSW,241,5.0,13.0,61,0.05,,,0.07,713.000000,,2013-02-08 21:42:00,
2013-02-08 13:52:00,36.0,24.0,-100.00,WSW,241,5.0,13.0,61,0.05,,,0.07,713.000000,,2013-02-08 21:52:00,
2013-02-08 14:01:00,36.0,24.0,-100.00,WSW,241,5.0,13.0,61,0.05,,,0.07,713.000000,,2013-02-08 22:01:00,
2013-02-08 14:11:00,36.0,24.0,-100.00,WSW,241,5.0,13.0,61,0.05,,,0.07,713.000000,,2013-02-08 22:11:00,
2013-02-08 14:21:00,36.0,24.0,-100.00,WSW,241,5.0,13.0,61,0.05,,,0.07,713.000000,,2013-02-08 22:21:00,
2013-02-08 14:42:00,32.0,22.0,-100.00,WNW,298,6.0,16.0,66,0.00,,,0.07,337.000000,,2013-02-08 22:42:00,
2013-02-08 14:52:00,32.0,22.0,-100.00,WNW,298,6.0,16.0,66,0.00,,,0.07,337.000000,,2013-02-08 22:52:00,
2013-02-08 15:01:00,32.0,22.0,-100.00,WNW,298,6.0,16.0,66,0.00,,,0.07,337.000000,,2013-02-08 23:01:00,
2013-02-08 15:11:00,32.0,22.0,-100.00,WNW,298,6.0,16.0,66,0.00,,,0.07,337.000000,,2013-02-08 23:11:00,
2013-02-08 15:21:00,32.0,22.0,-100.00,WNW,298,6.0,16.0,66,0.00,,,0.07,337.000000,,2013-02-08 23:21:00,
2013-02-08 15:42:00,30.0,23.0,-100.00,ENE,61,4.0,12.0,76,0.00,,,0.07,222.000000,,2013-02-08 23:42:00,
2013-02-08 15:52:00,30.0,23.0,-100.00,ENE,61,4.0,12.0,76,0.00,,,0.07,222.000000,,2013-02-08 23:52:00,
2013-02-08 16:01:00,30.0,23.0,-100.00,ENE,61,4.0,12.0,76,0.00,,,0.07,222.000000,,2013-02-09 00:01:00,
2013-02-08 16:11:00,30.0,23.0,-100.00,ENE,61,4.0,12.0,76,0.00,,,0.07,222.000000,,2013-02-09 00:11:00,
2013-02-08 16:21:00,30.0,23.0,-100.00,ENE,61,4.0,12.0,76,0.00,,,0.07,222.000000,,2013-02-09 00:21:00,
2013-02-08 16:42:00,30.0,15.0,-100.00,North,1,5.0,12.0,54,0.00,,,0.07,111.000000,,2013-02-09 00:42:00,
2013-02-08 16:52:00,30.0,15.0,-100.00,North,1,5.0,12.0,54,0.00,,,0.07,111.000000,,2013-02-09 00:52:00,
2013-02-08 17:01:00,30.0,15.0,-100.00,North,1,5.0,12.0,54,0.00,,,0.07,111.000000,,2013-02-09 01:01:00,
2013-02-08 17:11:00,30.0,15.0,-100.00,North,1,5.0,12.0,54,0.00,,,0.07,111.000000,,2013-02-09 01:11:00,
2013-02-08 17:21:00,30.0,15.0,-100.00,North,1,5.0,12.0,54,0.00,,,0.07,111.000000,,2013-02-09 01:21:00,
2013-02-08 17:42:00,29.0,13.0,-100.00,NW,324,6.0,10.0,50,0.00,,,0.07,50.000000,,2013-02-09 01:42:00,
2013-02-08 17:52:00,29.0,13.0,-100.00,NW,324,6.0,10.0,50,0.00,,,0.07,50.000000,,2013-02-09 01:52:00,
2013-02-08 18:01:00,29.0,13.0,-100.00,NW,324,6.0,10.0,50,0.00,,,0.07,50.000000,,2013-02-09 02:01:00,
2013-02-08 18:11:00,29.0,13.0,-100.00,NW,324,6.0,10.0,50,0.00,,,0.07,50.000000,,2013-02-09 02:11:00,
2013-02-08 18:21:00,29.0,13.0,-100.00,NW,324,6.0,10.0,50,0.00,,,0.07,50.000000,,2013-02-09 02:21:00,
2013-02-08 18:42:00,27.0,13.0,-100.00,NNE,29,6.0,11.0,55,0.00,,,0.07,3.000000,,2013-02-09 02:42:00,
2013-02-08 18:52:00,27.0,13.0,-100.00,NNE,29,6.0,11.0,55,0.00,,,0.07,3.000000,,2013-02-09 02:52:00,
2013-02-08 19:01:00,27.0,13.0,-100.00,NNE,29,6.0,11.0,55,0.00,,,0.07,3.000000,,2013-02-09 03:01:00,
2013-02-08 19:11:00,27.0,13.0,-100.00,NNE,29,6.0,11.0,55,0.00,,,0.07,3.000000,,2013-02-09 03:11:00,
2013-02-08 19:21:00,27.0,13.0,-100.00,NNE,29,6.0,11.0,55,0.00,,,0.07,3.000000,,2013-02-09 03:21:00,
2013-02-08 19:42:00,27.0,16.0,-100.00,North,349,4.0,12.0,63,0.00,,,0.07,0.000000,,2013-02-09 03:42:00,
2013-02-08 19:52:00,27.0,16.0,-100.00,North,349,4.0,12.0,63,0.00,,,0.07,0.000000,,2013-02-09 03:52:00,
2013-02-08 20:02:00,27.0,16.0,-100.00,North,349,4.0,12.0,63,0.00,,,0.07,0.000000,,2013-02-09 04:02:00,
2013-02-08 20:11:00,27.0,16.0,-100.00,North,349,4.0,12.0,63,0.00,,,0.07,0.000000,,2013-02-09 04:11:00,
2013-02-08 20:22:00,27.0,16.0,-100.00,North,349,4.0,12.0,63,0.00,,,0.07,0.000000,,2013-02-09 04:22:00,
2013-02-08 20:42:00,26.0,14.0,-100.00,NW,310,5.0,10.0,60,0.00,,,0.07,0.000000,,2013-02-09 04:42:00,
2013-02-08 20:52:00,26.0,14.0,-100.00,NW,310,5.0,10.0,60,0.00,,,0.07,0.000000,,2013-02-09 04:52:00,
2013-02-08 21:02:00,26.0,14.0,-100.00,NW,310,5.0,10.0,60,0.00,,,0.07,0.000000,,2013-02-09 05:02:00,
2013-02-08 21:11:00,26.0,14.0,-100.00,NW,310,5.0,10.0,60,0.00,,,0.07,0.000000,,2013-02-09 05:11:00,
2013-02-08 21:22:00,26.0,14.0,-100.00,NW,310,5.0,10.0,60,0.00,,,0.07,0.000000,,2013-02-09 05:22:00,
2013-02-08 21:42:00,24.0,11.0,-100.00,NW,323,4.0,8.0,58,0.00,,,0.07,0.000000,,2013-02-09 05:42:00,
2013-02-08 21:52:00,24.0,11.0,-100.00,NW,323,4.0,8.0,58,0.00,,,0.07,0.000000,,2013-02-09 05:52:00,
2013-02-08 22:01:00,24.0,11.0,-100.00,NW,323,4.0,8.0,58,0.00,,,0.07,0.000000,,2013-02-09 06:01:00,
2013-02-08 22:11:00,24.0,11.0,-100.00,NW,323,4.0,8.0,58,0.00,,,0.07,0.000000,,2013-02-09 06:11:00,
2013-02-08 22:21:00,24.0,11.0,-100.00,NW,323,4.0,8.0,58,0.00,,,0.07,0.000000,,2013-02-09 06:21:00,
2013-02-08 22:42:00,24.0,10.0,-100.00,WNW,291,5.0,8.0,55,0.00,,,0.07,0.000000,,2013-02-09 06:42:00,
2013-02-08 22:52:00,24.0,10.0,-100.00,WNW,291,5.0,8.0,55,0.00,,,0.07,0.000000,,2013-02-09 06:52:00,
2013-02-08 23:01:00,24.0,10.0,-100.00,WNW,291,5.0,8.0,55,0.00,,,0.07,0.000000,,2013-02-09 07:01:00,
2013-02-08 23:11:00,24.0,10.0,-100.00,WNW,291,5.0,8.0,55,0.00,,,0.07,0.000000,,2013-02-09 07:11:00,
2013-02-08 23:21:00,24.0,10.0,-100.00,WNW,291,5.0,8.0,55,0.00,,,0.07,0.000000,,2013-02-09 07:21:00,
2013-02-08 23:42:00,24.0,9.0,-100.00,East,91,5.0,14.0,52,0.00,,,0.07,0.000000,,2013-02-09 07:42:00,
2013-02-08 23:52:00,24.0,9.0,-100.00,East,91,5.0,14.0,52,0.00,,,0.07,0.000000,,2013-02-09 07:52:00,